createdAt,value
2022-09-28T00:00:47.905Z,10.70
2022-09-28T00:03:17.063Z,10.70
2022-09-28T00:05:43.795Z,10.70
2022-09-28T00:08:10.456Z,10.70
2022-09-28T00:10:37.588Z,10.70
2022-09-28T00:13:04.429Z,10.70
2022-09-28T00:15:31.067Z,10.70
2022-09-28T00:18:00.180Z,10.60
2022-09-28T00:20:26.826Z,10.70
2022-09-28T00:22:55.711Z,10.70
2022-09-28T00:25:22.466Z,10.60
2022-09-28T00:27:52.072Z,10.50
2022-09-28T00:30:18.789Z,10.60
2022-09-28T00:32:50.302Z,10.60
2022-09-28T00:35:19.461Z,10.60
2022-09-28T00:37:51.007Z,10.60
2022-09-28T00:40:22.558Z,10.60
2022-09-28T00:42:49.242Z,10.60
2022-09-28T00:45:16.010Z,10.60
2022-09-28T00:47:54.556Z,10.50
2022-09-28T00:50:28.824Z,10.60
2022-09-28T00:53:04.271Z,10.50
2022-09-28T00:55:40.460Z,10.60
2022-09-28T00:58:10.273Z,10.50
2022-09-28T01:00:37.786Z,10.50
2022-09-28T01:03:04.621Z,10.50
2022-09-28T01:05:33.107Z,10.40
2022-09-28T01:08:02.290Z,10.40
2022-09-28T01:10:31.255Z,10.30
2022-09-28T01:12:59.190Z,10.40
2022-09-28T01:15:28.608Z,10.40
2022-09-28T01:18:03.567Z,10.40
2022-09-28T01:20:49.298Z,10.40
2022-09-28T01:23:49.308Z,10.40
2022-09-28T01:26:27.457Z,10.40
2022-09-28T01:29:13.371Z,10.30
2022-09-28T01:31:44.299Z,10.30
2022-09-28T01:34:20.906Z,10.30
2022-09-28T01:36:55.802Z,10.30
2022-09-28T01:39:36.055Z,10.30
2022-09-28T01:42:11.682Z,10.30
2022-09-28T01:44:47.851Z,10.30
2022-09-28T01:47:17.855Z,10.20
2022-09-28T01:49:47.250Z,10.30
2022-09-28T01:52:40.915Z,10.20
2022-09-28T01:55:13.210Z,10.20
2022-09-28T01:57:39.797Z,10.20
2022-09-28T02:00:13.300Z,10.20
2022-09-28T02:03:05.904Z,10.20
2022-09-28T02:05:33.818Z,10.20
2022-09-28T02:10:50.739Z,10.00
2022-09-28T02:13:27.865Z,10.00
2022-09-28T02:16:01.075Z,10.00
2022-09-28T02:18:27.823Z,10.00
2022-09-28T02:21:28.052Z,10.00
2022-09-28T02:24:02.603Z,10.00
2022-09-28T02:26:39.085Z,10.00
2022-09-28T02:29:05.908Z,10.00
2022-09-28T02:31:32.708Z,10.00
2022-09-28T02:33:59.502Z,10.00
2022-09-28T02:36:28.587Z,10.00
2022-09-28T02:38:57.208Z,10.00
2022-09-28T02:41:47.323Z,10.10
2022-09-28T02:44:35.062Z,10.10
2022-09-28T02:47:22.755Z,10.00
2022-09-28T02:50:21.281Z,10.00
2022-09-28T02:53:24.561Z,10.00
2022-09-28T02:56:25.171Z,10.10
2022-09-28T02:59:09.474Z,10.00
2022-09-28T03:02:02.936Z,10.00
2022-09-28T03:05:03.890Z,10.00
2022-09-28T03:07:56.335Z,10.10
2022-09-28T03:10:41.937Z,10.10
2022-09-28T03:13:10.223Z,10.10
2022-09-28T03:15:37.351Z,10.10
2022-09-28T03:18:04.342Z,10.00
2022-09-28T03:20:33.398Z,10.00
2022-09-28T03:23:23.170Z,10.00
2022-09-28T03:25:47.436Z,10.00
2022-09-28T03:28:14.128Z,10.00
2022-09-28T03:30:42.025Z,10.00
2022-09-28T03:33:08.690Z,10.10
2022-09-28T03:35:35.391Z,10.00
2022-09-28T03:38:02.103Z,10.10
2022-09-28T03:40:28.800Z,10.10
2022-09-28T03:42:55.509Z,10.00
2022-09-28T03:45:22.179Z,10.00
2022-09-28T03:47:48.964Z,10.10
2022-09-28T03:50:18.342Z,10.00
2022-09-28T03:52:45.003Z,10.10
2022-09-28T03:55:14.051Z,10.10
2022-09-28T03:57:40.680Z,10.10
2022-09-28T04:00:08.084Z,10.10
2022-09-28T04:02:35.049Z,10.10
2022-09-28T04:05:02.285Z,10.10
2022-09-28T04:07:31.054Z,10.00
2022-09-28T04:09:58.176Z,10.00
2022-09-28T04:12:24.937Z,10.00
2022-09-28T04:14:51.575Z,10.00
2022-09-28T04:17:20.502Z,10.00
2022-09-28T04:19:47.345Z,10.00
2022-09-28T04:22:14.182Z,10.00
2022-09-28T04:24:43.395Z,10.00
2022-09-28T04:27:28.921Z,10.00
2022-09-28T04:29:55.598Z,10.00
2022-09-28T04:32:22.396Z,10.00
2022-09-28T04:34:49.692Z,10.00
2022-09-28T04:37:18.711Z,10.00
2022-09-28T04:39:48.440Z,10.00
2022-09-28T04:42:15.865Z,10.00
2022-09-28T04:44:42.526Z,10.00
2022-09-28T04:47:09.741Z,10.00
2022-09-28T04:49:38.239Z,10.00
2022-09-28T04:52:08.282Z,10.00
2022-09-28T04:54:35.410Z,10.00
2022-09-28T04:57:03.657Z,10.00
2022-09-28T04:59:36.121Z,9.90
2022-09-28T05:02:03.109Z,10.00
2022-09-28T05:04:30.972Z,10.00
2022-09-28T05:06:58.083Z,10.00
2022-09-28T05:09:24.779Z,10.00
2022-09-28T05:11:53.018Z,9.90
2022-09-28T05:14:21.977Z,9.90
2022-09-28T05:16:51.998Z,9.90
2022-09-28T05:19:20.865Z,9.90
2022-09-28T05:21:48.788Z,9.90
2022-09-28T05:24:15.503Z,9.80
2022-09-28T05:26:42.175Z,9.80
2022-09-28T05:29:08.906Z,9.80
2022-09-28T05:31:35.632Z,9.90
2022-09-28T05:34:02.421Z,9.90
2022-09-28T05:36:29.932Z,9.90
2022-09-28T05:38:59.087Z,9.90
2022-09-28T05:41:25.781Z,9.90
2022-09-28T05:43:52.569Z,9.90
2022-09-28T05:46:23.601Z,9.80
2022-09-28T05:48:52.301Z,9.80
2022-09-28T05:51:19.347Z,9.90
2022-09-28T05:53:46.099Z,9.80
2022-09-28T05:56:12.881Z,9.80
2022-09-28T05:58:39.529Z,9.80
2022-09-28T06:01:06.325Z,9.80
2022-09-28T06:03:33.105Z,9.90
2022-09-28T06:06:05.078Z,9.90
2022-09-28T06:08:32.965Z,9.90
2022-09-28T06:11:02.606Z,9.90
2022-09-28T06:13:32.072Z,9.90
2022-09-28T06:15:58.800Z,10.00
2022-09-28T06:18:25.456Z,10.00
2022-09-28T06:20:52.228Z,10.00
2022-09-28T06:23:19.132Z,10.00
2022-09-28T06:25:51.035Z,10.00
2022-09-28T06:28:17.720Z,10.00
2022-09-28T06:30:48.162Z,10.00
2022-09-28T06:33:17.862Z,10.00
2022-09-28T06:35:44.582Z,10.10
2022-09-28T06:38:13.733Z,10.10
2022-09-28T06:40:40.548Z,10.10
2022-09-28T06:43:11.197Z,10.20
2022-09-28T06:45:41.258Z,10.20
2022-09-28T06:48:09.323Z,10.20
2022-09-28T06:50:41.443Z,10.20
2022-09-28T06:53:11.340Z,10.20
2022-09-28T06:55:41.576Z,10.30
2022-09-28T06:58:12.595Z,10.30
2022-09-28T07:00:42.519Z,10.20
2022-09-28T07:03:12.255Z,10.30
2022-09-28T07:05:42.347Z,10.20
2022-09-28T07:08:12.095Z,10.30
2022-09-28T07:10:49.668Z,10.20
2022-09-28T07:13:44.082Z,10.30
2022-09-28T07:16:04.451Z,10.30
2022-09-28T07:18:31.155Z,10.40
2022-09-28T07:20:58.820Z,10.40
2022-09-28T07:23:34.728Z,10.40
2022-09-28T07:26:08.697Z,10.40
2022-09-28T07:28:40.408Z,10.40
2022-09-28T07:31:07.657Z,10.50
2022-09-28T07:33:36.735Z,10.50
2022-09-28T07:36:06.590Z,10.50
2022-09-28T07:38:33.667Z,10.40
2022-09-28T07:41:12.493Z,10.50
2022-09-28T07:43:40.651Z,10.50
2022-09-28T07:46:12.026Z,10.50
2022-09-28T07:48:46.814Z,10.50
2022-09-28T07:51:13.747Z,10.60
2022-09-28T07:53:40.472Z,10.60
2022-09-28T07:56:09.498Z,10.60
2022-09-28T07:58:39.616Z,10.70
2022-09-28T08:01:11.746Z,10.70
2022-09-28T08:03:39.188Z,10.70
2022-09-28T08:06:09.794Z,10.70
2022-09-28T08:08:36.516Z,10.80
2022-09-28T08:11:05.971Z,10.70
2022-09-28T08:13:32.683Z,10.70
2022-09-28T08:16:03.842Z,10.70
2022-09-28T08:18:31.376Z,10.70
2022-09-28T08:21:19.295Z,10.70
2022-09-28T08:23:46.027Z,10.80
2022-09-28T08:26:15.507Z,10.80
2022-09-28T08:28:46.748Z,10.80
2022-09-28T08:31:15.824Z,10.90
2022-09-28T08:33:42.579Z,10.90
2022-09-28T08:36:10.368Z,11.00
2022-09-28T08:38:37.251Z,11.00
2022-09-28T08:41:27.665Z,11.00
2022-09-28T08:44:00.818Z,11.10
2022-09-28T08:46:35.628Z,11.10
2022-09-28T08:49:25.435Z,11.20
2022-09-28T08:51:59.743Z,11.20
2022-09-28T08:54:41.136Z,11.30
2022-09-28T08:58:03.297Z,11.30
2022-09-28T09:00:48.602Z,11.30
2022-09-28T09:03:34.337Z,11.20
2022-09-28T09:06:10.037Z,11.20
2022-09-28T09:08:52.300Z,11.20
2022-09-28T09:11:44.322Z,11.40
2022-09-28T09:14:22.304Z,11.50
2022-09-28T09:17:13.154Z,11.70
2022-09-28T09:20:01.343Z,11.80
2022-09-28T09:22:46.435Z,12.00
2022-09-28T09:25:40.049Z,12.10
2022-09-28T09:28:24.840Z,12.10
2022-09-28T09:31:22.537Z,12.10
2022-09-28T09:34:06.906Z,12.10
2022-09-28T09:36:53.498Z,12.00
2022-09-28T09:39:48.137Z,12.10
2022-09-28T09:42:35.684Z,12.20
2022-09-28T09:45:39.575Z,12.40
2022-09-28T09:48:18.954Z,12.30
2022-09-28T09:51:00.440Z,12.30
2022-09-28T09:53:40.619Z,12.30
2022-09-28T09:56:15.114Z,12.30
2022-09-28T09:58:48.783Z,12.30
2022-09-28T10:01:19.891Z,12.30
2022-09-28T10:03:48.686Z,12.30
2022-09-28T10:06:27.382Z,12.40
2022-09-28T10:09:06.306Z,12.40
2022-09-28T10:11:45.439Z,12.60
2022-09-28T10:14:24.030Z,12.70
2022-09-28T10:16:53.776Z,12.70
2022-09-28T10:19:21.578Z,12.80
2022-09-28T10:21:53.255Z,12.80
2022-09-28T10:24:44.678Z,12.70
2022-09-28T10:27:18.045Z,12.60
2022-09-28T10:30:00.609Z,12.60
2022-09-28T10:32:43.752Z,12.50
2022-09-28T10:35:19.232Z,12.60
2022-09-28T10:37:52.226Z,12.70
2022-09-28T10:40:37.892Z,12.70
2022-09-28T10:43:15.635Z,12.90
2022-09-28T10:45:42.734Z,12.90
2022-09-28T10:48:20.138Z,12.80
2022-09-28T10:51:07.352Z,12.80
2022-09-28T10:53:39.589Z,12.80
2022-09-28T10:56:18.025Z,12.80
2022-09-28T10:58:49.817Z,12.80
2022-09-28T11:01:31.041Z,12.70
2022-09-28T11:04:07.981Z,12.70
2022-09-28T11:06:40.002Z,12.70
2022-09-28T11:09:29.801Z,12.70
2022-09-28T11:11:59.365Z,12.70
2022-09-28T11:14:29.656Z,12.90
2022-09-28T11:17:32.478Z,12.90
2022-09-28T11:20:28.274Z,13.00
2022-09-28T11:22:59.407Z,13.10
2022-09-28T11:25:28.421Z,13.10
2022-09-28T11:27:55.119Z,13.00
2022-09-28T11:30:29.714Z,12.90
2022-09-28T11:33:24.787Z,12.90
2022-09-28T11:36:00.208Z,12.80
2022-09-28T11:38:39.237Z,12.90
2022-09-28T11:41:40.960Z,13.00
2022-09-28T11:44:19.848Z,13.40
2022-09-28T11:47:05.431Z,13.40
2022-09-28T11:49:56.180Z,13.50
2022-09-28T11:52:22.787Z,13.40
2022-09-28T11:55:11.951Z,13.40
2022-09-28T11:57:42.169Z,13.50
2022-09-28T12:00:18.160Z,13.50
2022-09-28T12:03:01.279Z,13.60
2022-09-28T12:05:33.153Z,13.60
2022-09-28T12:08:28.121Z,13.60
2022-09-28T12:10:58.487Z,13.60
2022-09-28T12:13:34.254Z,13.50
2022-09-28T12:19:04.203Z,13.50
2022-09-28T12:21:36.491Z,13.50
2022-09-28T12:24:32.194Z,13.40
2022-09-28T12:27:01.812Z,13.40
2022-09-28T12:29:41.464Z,13.40
2022-09-28T12:32:29.379Z,13.40
2022-09-28T12:34:57.060Z,13.40
2022-09-28T12:37:54.522Z,13.30
2022-09-28T12:40:36.813Z,13.30
2022-09-28T12:43:17.549Z,13.30
2022-09-28T12:46:12.045Z,13.30
2022-09-28T12:49:47.593Z,13.30
2022-09-28T12:52:00.156Z,13.30
2022-09-28T12:54:38.944Z,13.30
2022-09-28T12:57:34.642Z,13.30
2022-09-28T13:00:23.414Z,13.30
2022-09-28T13:03:31.639Z,13.30
2022-09-28T13:06:16.496Z,13.40
2022-09-28T13:08:46.152Z,13.30
2022-09-28T13:11:16.133Z,13.30
2022-09-28T13:14:14.964Z,13.20
2022-09-28T13:17:08.465Z,13.20
2022-09-28T13:19:54.403Z,13.20
2022-09-28T13:22:44.058Z,13.20
2022-09-28T13:25:16.941Z,13.10
2022-09-28T13:27:50.259Z,13.00
2022-09-28T13:30:18.937Z,13.00
2022-09-28T13:32:47.296Z,13.00
2022-09-28T13:35:21.460Z,13.10
2022-09-28T13:38:08.457Z,13.10
2022-09-28T13:41:06.160Z,13.10
2022-09-28T13:44:06.259Z,13.20
2022-09-28T13:47:06.912Z,13.20
2022-09-28T13:50:19.733Z,13.30
2022-09-28T13:52:49.496Z,13.20
2022-09-28T13:55:51.141Z,13.30
2022-09-28T13:58:41.281Z,13.40
2022-09-28T14:01:10.661Z,13.30
2022-09-28T14:03:57.193Z,13.40
2022-09-28T14:06:28.259Z,13.40
2022-09-28T14:09:13.574Z,13.40
2022-09-28T14:11:42.458Z,13.40
2022-09-28T14:14:11.785Z,13.30
2022-09-28T14:16:42.185Z,13.30
2022-09-28T14:19:08.798Z,13.30
2022-09-28T14:22:09.355Z,13.30
2022-09-28T14:25:07.280Z,13.30
2022-09-28T14:28:02.880Z,13.30
2022-09-28T14:30:53.008Z,13.30
2022-09-28T14:33:30.586Z,13.30
2022-09-28T14:36:06.422Z,13.40
2022-09-28T14:39:13.091Z,13.40
2022-09-28T14:41:42.755Z,13.40
2022-09-28T14:44:16.285Z,13.40
2022-09-28T14:46:45.599Z,13.50
2022-09-28T14:49:19.477Z,13.50
2022-09-28T14:51:55.861Z,13.50
2022-09-28T14:54:29.617Z,13.60
2022-09-28T14:57:21.533Z,13.70
2022-09-28T14:59:48.364Z,13.90
2022-09-28T15:02:21.990Z,14.00
2022-09-28T15:05:30.368Z,14.00
2022-09-28T15:07:57.170Z,14.00
2022-09-28T15:10:48.302Z,14.00
2022-09-28T15:13:21.348Z,14.00
2022-09-28T15:15:51.590Z,14.00
2022-09-28T15:18:59.889Z,13.90
2022-09-28T15:21:43.324Z,13.90
2022-09-28T15:24:31.517Z,13.80
2022-09-28T15:27:04.101Z,13.80
2022-09-28T15:29:33.508Z,13.70
2022-09-28T15:32:03.883Z,13.70
2022-09-28T15:34:54.665Z,13.60
2022-09-28T15:37:22.793Z,13.60
2022-09-28T15:39:53.712Z,13.70
2022-09-28T15:42:21.013Z,13.70
2022-09-28T15:45:01.344Z,13.70
2022-09-28T15:47:29.508Z,13.60
2022-09-28T15:50:05.893Z,13.60
2022-09-28T15:52:55.085Z,13.50
2022-09-28T15:55:34.446Z,13.50
2022-09-28T15:58:20.248Z,13.50
2022-09-28T16:00:49.323Z,13.50
2022-09-28T16:03:28.194Z,13.50
2022-09-28T16:05:57.591Z,13.40
2022-09-28T16:08:37.630Z,13.50
2022-09-28T16:11:28.908Z,13.50
2022-09-28T16:14:17.387Z,13.40
2022-09-28T16:16:49.521Z,13.40
2022-09-28T16:19:32.008Z,13.40
2022-09-28T16:22:02.004Z,13.30
2022-09-28T16:24:36.523Z,13.30
2022-09-28T16:27:28.416Z,13.20
2022-09-28T16:30:06.206Z,13.10
2022-09-28T16:32:48.826Z,13.00
2022-09-28T16:35:34.986Z,12.80
2022-09-28T16:38:14.399Z,12.80
2022-09-28T16:40:43.175Z,14.00
2022-09-28T16:43:26.639Z,12.40
2022-09-28T16:46:00.685Z,12.30
2022-09-28T16:48:32.005Z,12.20
2022-09-28T16:51:01.100Z,12.20
2022-09-28T16:53:48.828Z,12.20
2022-09-28T16:56:15.801Z,12.10
2022-09-28T16:58:42.761Z,12.00
2022-09-28T17:01:14.822Z,11.90
2022-09-28T17:03:46.606Z,11.90
2022-09-28T17:06:14.899Z,11.80
2022-09-28T17:08:42.981Z,11.80
2022-09-28T17:11:23.637Z,11.80
2022-09-28T17:13:51.808Z,11.80
2022-09-28T17:16:32.229Z,11.80
2022-09-28T17:19:05.680Z,11.70
2022-09-28T17:21:32.328Z,11.60
2022-09-28T17:23:58.995Z,11.60
2022-09-28T17:26:30.698Z,11.50
2022-09-28T17:29:01.646Z,11.50
2022-09-28T17:31:31.271Z,11.50
2022-09-28T17:33:58.115Z,11.40
2022-09-28T17:36:26.586Z,11.40
2022-09-28T17:38:53.375Z,11.40
2022-09-28T17:41:21.039Z,11.50
2022-09-28T17:43:50.480Z,11.50
2022-09-28T17:46:35.496Z,11.50
2022-09-28T17:49:04.918Z,11.50
2022-09-28T17:51:34.623Z,11.50
2022-09-28T17:54:01.960Z,11.50
2022-09-28T17:56:32.077Z,11.50
2022-09-28T17:59:10.571Z,11.50
2022-09-28T18:01:40.301Z,11.50
2022-09-28T18:04:13.191Z,11.50
2022-09-28T18:06:45.822Z,11.60
2022-09-28T18:09:14.983Z,11.60
2022-09-28T18:11:44.526Z,11.60
2022-09-28T18:14:11.513Z,11.60
2022-09-28T18:16:38.379Z,11.60
2022-09-28T18:19:07.755Z,11.60
2022-09-28T18:21:36.671Z,11.60
2022-09-28T18:24:05.672Z,11.60
2022-09-28T18:26:36.961Z,11.50
2022-09-28T18:29:03.695Z,11.50
2022-09-28T18:31:30.436Z,11.50
2022-09-28T18:34:01.657Z,11.60
2022-09-28T18:36:33.693Z,11.60
2022-09-28T18:39:01.409Z,11.60
2022-09-28T18:41:29.293Z,11.60
2022-09-28T18:44:00.550Z,11.60
2022-09-28T18:46:28.890Z,11.60
2022-09-28T18:48:58.162Z,11.60
2022-09-28T18:51:24.895Z,11.60
2022-09-28T18:53:53.801Z,11.60
2022-09-28T18:56:21.010Z,11.60
2022-09-28T18:58:53.762Z,11.60
2022-09-28T19:01:31.711Z,11.50
2022-09-28T19:04:00.494Z,11.50
2022-09-28T19:06:27.875Z,11.60
2022-09-28T19:08:57.697Z,11.50
2022-09-28T19:11:25.222Z,11.50
2022-09-28T19:13:54.332Z,11.60
2022-09-28T19:16:27.262Z,11.60
2022-09-28T19:18:55.962Z,11.50
2022-09-28T19:21:23.272Z,11.50
2022-09-28T19:23:50.185Z,11.50
2022-09-28T19:26:26.061Z,11.50
2022-09-28T19:28:56.210Z,11.40
2022-09-28T19:31:23.460Z,11.40
2022-09-28T19:33:50.419Z,11.40
2022-09-28T19:36:19.702Z,11.30
2022-09-28T19:38:46.632Z,11.30
2022-09-28T19:41:39.610Z,11.30
2022-09-28T19:44:21.167Z,11.30
2022-09-28T19:46:50.332Z,11.30
2022-09-28T19:49:21.278Z,11.30
2022-09-28T19:52:14.994Z,11.30
2022-09-28T19:54:39.643Z,11.20
2022-09-28T19:57:08.446Z,11.20
2022-09-28T19:59:36.943Z,11.10
2022-09-28T20:02:05.388Z,11.20
2022-09-28T20:04:34.425Z,11.20
2022-09-28T20:07:01.756Z,11.20
2022-09-28T20:09:28.720Z,11.20
2022-09-28T20:11:57.567Z,11.20
2022-09-28T20:14:33.134Z,11.20
2022-09-28T20:17:03.283Z,11.20
2022-09-28T20:19:29.995Z,11.20
2022-09-28T20:21:59.358Z,11.20
2022-09-28T20:24:26.100Z,11.20
2022-09-28T20:26:55.484Z,11.20
2022-09-28T20:29:23.007Z,11.10
2022-09-28T20:31:49.756Z,11.10
2022-09-28T20:34:16.534Z,11.10
2022-09-28T20:36:44.638Z,11.10
2022-09-28T20:39:11.904Z,11.20
2022-09-28T20:41:38.756Z,11.20
2022-09-28T20:44:06.808Z,11.10
2022-09-28T20:46:37.190Z,11.10
2022-09-28T20:49:04.862Z,11.10
2022-09-28T20:51:31.938Z,11.10
2022-09-28T20:54:02.405Z,11.20
2022-09-28T20:56:39.230Z,11.10
2022-09-28T20:59:08.506Z,11.10
2022-09-28T21:01:35.702Z,11.10
2022-09-28T21:04:07.065Z,11.10
2022-09-28T21:06:39.146Z,11.10
2022-09-28T21:09:12.131Z,11.10
2022-09-28T21:11:43.513Z,11.10
2022-09-28T21:14:10.325Z,11.10
2022-09-28T21:16:39.513Z,11.00
2022-09-28T21:19:06.348Z,11.00
2022-09-28T21:21:33.023Z,11.00
2022-09-28T21:24:02.253Z,11.00
2022-09-28T21:26:31.720Z,11.00
2022-09-28T21:29:00.764Z,11.00
2022-09-28T21:31:30.374Z,11.10
2022-09-28T21:33:57.692Z,11.20
2022-09-28T21:36:25.142Z,11.10
2022-09-28T21:38:51.948Z,11.10
2022-09-28T21:41:18.620Z,11.10
2022-09-28T21:43:48.308Z,11.10
2022-09-28T21:46:17.538Z,11.10
2022-09-28T21:48:44.364Z,11.10
2022-09-28T21:51:14.052Z,11.00
2022-09-28T21:53:43.399Z,11.00
2022-09-28T21:56:12.261Z,11.00
2022-09-28T21:58:41.343Z,10.90
2022-09-28T22:01:18.155Z,10.90
2022-09-28T22:03:50.684Z,10.90
2022-09-28T22:06:21.450Z,10.80
2022-09-28T22:08:49.398Z,10.80
2022-09-28T22:11:27.418Z,10.80
2022-09-28T22:13:57.311Z,10.90
2022-09-28T22:16:27.645Z,10.80
2022-09-28T22:18:56.976Z,10.80
2022-09-28T22:21:29.375Z,10.80
2022-09-28T22:24:05.721Z,10.80
2022-09-28T22:26:36.739Z,10.80
2022-09-28T22:29:06.637Z,10.70
2022-09-28T22:31:34.929Z,10.70
2022-09-28T22:34:05.724Z,10.70
2022-09-28T22:36:32.811Z,10.80
2022-09-28T22:39:00.418Z,10.70
2022-09-28T22:41:28.304Z,10.70
2022-09-28T22:43:55.219Z,10.70
2022-09-28T22:46:25.337Z,10.80
2022-09-28T22:48:57.556Z,10.70
2022-09-28T22:51:26.025Z,10.60
2022-09-28T22:53:52.938Z,10.60
2022-09-28T22:56:19.883Z,10.60
2022-09-28T22:58:49.339Z,10.60
2022-09-28T23:01:19.700Z,10.60
2022-09-28T23:03:49.828Z,10.60
2022-09-28T23:06:19.020Z,10.70
2022-09-28T23:08:47.198Z,10.70
2022-09-28T23:11:15.030Z,10.60
2022-09-28T23:13:41.810Z,10.50
2022-09-28T23:16:12.760Z,10.30
2022-09-28T23:18:43.687Z,10.40
2022-09-28T23:21:15.994Z,10.40
2022-09-28T23:23:43.921Z,10.10
2022-09-28T23:26:11.879Z,10.00
2022-09-28T23:28:38.624Z,10.00
2022-09-28T23:31:11.111Z,10.00
2022-09-28T23:33:40.106Z,10.00
2022-09-28T23:36:09.936Z,10.00
2022-09-28T23:38:36.986Z,10.00
2022-09-28T23:41:03.906Z,10.00
2022-09-28T23:43:30.678Z,10.00
2022-09-28T23:45:57.332Z,10.10
2022-09-28T23:48:26.112Z,10.10
2022-09-28T23:50:52.737Z,10.00
2022-09-28T23:53:19.506Z,10.00
2022-09-28T23:55:46.211Z,10.00
2022-09-28T23:58:12.833Z,10.00
